HEBA/HBE METAR and TAF weather

Enter ICAO airport designator
Station Type Date Time Source
HEBA METAR 2019/04/18 20:00 UTC NOAA

HEBA 182000Z 00000KT CAVOK 15/12 Q1018 NOSIG


Station Type Date Time Source
HEBA Decoded METAR 2019/04/18 20:00 UTC NOAA

Alexandria Borg El Arab, Egypt (HEBA) 31-31N 030-10E
Apr 18, 2019 - 04:00 PM EDT / 2019.04.18 2000 UTC
Wind: Calm:0
Visibility: greater than 7 mile(s):0
Temperature: 59 F (15 C)
Dew Point: 53 F (12 C)
Relative Humidity: 82%
Pressure (altimeter): 30.06 in. Hg (1018 hPa)
ob: HEBA 182000Z 00000KT CAVOK 15/12 Q1018 NOSIG
cycle: 20

Station Type Date Time Source
HEBA TAF 2019/04/18 18:00 UTC NOAA

TAF HEBA 181700Z 1818/1924 32010KT 9999 FEW020
TEMPO 1903/1907 VRB03KT 6000 NSC

Example: see airport list